createdAt,value
2022-07-26T00:00:12.625Z,3.05
2022-07-26T00:02:47.435Z,3.63
2022-07-26T00:05:16.138Z,3.25
2022-07-26T00:07:43.323Z,3.13
2022-07-26T00:10:10.759Z,3.67
2022-07-26T00:12:37.924Z,2.83
2022-07-26T00:15:06.905Z,3.13
2022-07-26T00:17:33.675Z,2.50
2022-07-26T00:20:00.420Z,3.08
2022-07-26T00:22:36.251Z,3.00
2022-07-26T00:25:08.420Z,2.70
2022-07-26T00:27:38.985Z,3.33
2022-07-26T00:30:07.366Z,2.70
2022-07-26T00:32:34.106Z,2.67
2022-07-26T00:35:00.816Z,3.10
2022-07-26T00:37:27.657Z,3.03
2022-07-26T00:39:54.333Z,3.03
2022-07-26T00:42:21.017Z,3.00
2022-07-26T00:44:48.546Z,3.47
2022-07-26T00:47:15.762Z,3.15
2022-07-26T00:49:43.622Z,3.05
2022-07-26T00:52:11.106Z,3.60
2022-07-26T00:54:39.893Z,3.30
2022-07-26T00:57:07.340Z,3.20
2022-07-26T00:59:34.054Z,3.72
2022-07-26T01:02:01.384Z,3.00
2022-07-26T01:04:28.544Z,3.55
2022-07-26T01:06:55.521Z,2.72
2022-07-26T01:09:22.931Z,3.03
2022-07-26T01:11:50.626Z,3.13
2022-07-26T01:14:24.318Z,3.20
2022-07-26T01:16:52.220Z,2.55
2022-07-26T01:19:19.659Z,3.13
2022-07-26T01:21:46.367Z,2.85
2022-07-26T01:24:13.143Z,3.58
2022-07-26T01:26:40.092Z,3.42
2022-07-26T01:29:06.930Z,3.33
2022-07-26T01:31:33.868Z,3.33
2022-07-26T01:34:00.673Z,2.95
2022-07-26T01:36:27.357Z,3.30
2022-07-26T01:38:54.013Z,3.25
2022-07-26T01:41:31.614Z,3.38
2022-07-26T01:44:05.160Z,2.97
2022-07-26T01:46:32.083Z,3.45
2022-07-26T01:48:59.093Z,3.08
2022-07-26T01:51:25.809Z,3.05
2022-07-26T01:53:52.561Z,3.45
2022-07-26T01:56:19.242Z,3.35
2022-07-26T01:58:46.009Z,2.97
2022-07-26T02:01:12.721Z,3.03
2022-07-26T02:03:39.510Z,2.95
2022-07-26T02:06:06.689Z,3.00
2022-07-26T02:08:33.755Z,3.10
2022-07-26T02:11:00.655Z,2.40
2022-07-26T02:13:35.956Z,2.45
2022-07-26T02:16:04.526Z,2.25
2022-07-26T02:18:31.943Z,2.45
2022-07-26T02:21:00.960Z,2.53
2022-07-26T02:23:28.389Z,2.20
2022-07-26T02:25:55.690Z,2.33
2022-07-26T02:28:22.822Z,2.50
2022-07-26T02:30:50.102Z,2.42
2022-07-26T02:33:18.640Z,2.10
2022-07-26T02:35:45.808Z,2.33
2022-07-26T02:38:14.603Z,2.53
2022-07-26T02:40:42.287Z,2.08
2022-07-26T02:43:10.188Z,1.88
2022-07-26T02:45:37.543Z,2.00
2022-07-26T02:48:04.890Z,2.30
2022-07-26T02:50:32.329Z,1.95
2022-07-26T02:52:59.072Z,2.08
2022-07-26T02:55:26.791Z,2.00
2022-07-26T02:57:54.168Z,1.80
2022-07-26T03:00:25.620Z,1.80
2022-07-26T03:02:52.793Z,1.83
2022-07-26T03:05:20.582Z,2.60
2022-07-26T03:07:47.790Z,2.08
2022-07-26T03:10:14.775Z,2.10
2022-07-26T03:12:41.698Z,2.13
2022-07-26T03:15:09.095Z,2.20
2022-07-26T03:17:35.946Z,2.03
2022-07-26T03:20:03.078Z,1.80
2022-07-26T03:22:29.784Z,2.17
2022-07-26T03:24:56.490Z,1.70
2022-07-26T03:27:23.224Z,1.67
2022-07-26T03:29:49.987Z,2.28
2022-07-26T03:32:16.650Z,2.05
2022-07-26T03:34:43.407Z,2.03
2022-07-26T03:37:10.097Z,2.00
2022-07-26T03:39:38.074Z,2.28
2022-07-26T03:42:05.427Z,1.88
2022-07-26T03:44:32.098Z,2.50
2022-07-26T03:46:59.133Z,2.35
2022-07-26T03:49:26.437Z,1.88
2022-07-26T03:51:53.251Z,2.25
2022-07-26T03:54:19.907Z,2.10
2022-07-26T03:56:46.593Z,2.10
2022-07-26T03:59:13.314Z,2.10
2022-07-26T04:01:41.967Z,2.30
2022-07-26T04:04:10.427Z,2.30
2022-07-26T04:06:39.574Z,2.07
2022-07-26T04:09:07.319Z,1.95
2022-07-26T04:11:35.310Z,1.80
2022-07-26T04:14:02.689Z,1.92
2022-07-26T04:16:29.423Z,1.85
2022-07-26T04:18:56.617Z,2.30
2022-07-26T04:21:23.662Z,2.00
2022-07-26T04:23:51.690Z,2.22
2022-07-26T04:26:21.162Z,2.35
2022-07-26T04:28:48.483Z,2.33
2022-07-26T04:31:15.543Z,2.60
2022-07-26T04:33:42.662Z,2.65
2022-07-26T04:36:09.511Z,1.98
2022-07-26T04:38:36.256Z,2.65
2022-07-26T04:41:03.321Z,2.88
2022-07-26T04:43:30.105Z,2.13
2022-07-26T04:46:00.548Z,2.13
2022-07-26T04:48:27.467Z,2.05
2022-07-26T04:50:55.263Z,2.25
2022-07-26T04:53:22.013Z,2.40
2022-07-26T04:55:48.771Z,2.00
2022-07-26T04:58:15.498Z,2.08
2022-07-26T05:03:32.709Z,2.55
2022-07-26T05:05:59.377Z,2.30
2022-07-26T05:08:26.050Z,2.28
2022-07-26T05:10:55.481Z,2.20
2022-07-26T05:13:23.130Z,2.10
2022-07-26T05:15:57.057Z,2.20
2022-07-26T05:18:23.713Z,1.88
2022-07-26T05:20:51.495Z,2.22
2022-07-26T05:23:19.877Z,2.10
2022-07-26T05:25:46.832Z,2.03
2022-07-26T05:28:13.502Z,1.98
2022-07-26T05:30:40.223Z,1.85
2022-07-26T05:33:06.913Z,2.17
2022-07-26T05:35:33.610Z,1.85
2022-07-26T05:38:00.281Z,1.88
2022-07-26T05:40:26.986Z,1.80
2022-07-26T05:42:53.723Z,1.95
2022-07-26T05:45:20.455Z,1.92
2022-07-26T05:47:53.027Z,1.80
2022-07-26T05:50:20.460Z,2.13
2022-07-26T05:52:47.273Z,1.90
2022-07-26T05:55:14.626Z,2.30
2022-07-26T05:57:47.417Z,2.13
2022-07-26T06:00:16.578Z,3.17
2022-07-26T06:02:43.348Z,3.47
2022-07-26T06:05:10.333Z,2.28
2022-07-26T06:07:37.174Z,2.13
2022-07-26T06:10:04.976Z,2.50
2022-07-26T06:12:31.662Z,1.60
2022-07-26T06:14:58.359Z,1.52
2022-07-26T06:17:29.979Z,1.50
2022-07-26T06:19:57.842Z,1.75
2022-07-26T06:22:24.695Z,1.77
2022-07-26T06:24:51.377Z,1.50
2022-07-26T06:27:18.078Z,1.80
2022-07-26T06:29:44.821Z,1.50
2022-07-26T06:32:11.551Z,1.70
2022-07-26T06:34:38.259Z,2.00
2022-07-26T06:37:04.926Z,1.98
2022-07-26T06:39:32.267Z,1.50
2022-07-26T06:41:58.956Z,2.17
2022-07-26T06:44:25.619Z,1.80
2022-07-26T06:46:52.472Z,1.65
2022-07-26T06:49:22.724Z,1.70
2022-07-26T06:51:49.995Z,1.80
2022-07-26T06:54:16.776Z,2.10
2022-07-26T06:56:43.500Z,1.73
2022-07-26T06:59:10.286Z,2.25
2022-07-26T07:01:57.987Z,1.95
2022-07-26T07:04:23.747Z,1.52
2022-07-26T07:06:50.742Z,1.80
2022-07-26T07:09:17.451Z,1.38
2022-07-26T07:11:46.339Z,1.52
2022-07-26T07:14:16.541Z,1.52
2022-07-26T07:16:43.240Z,2.00
2022-07-26T07:19:09.936Z,1.50
2022-07-26T07:21:36.734Z,1.80
2022-07-26T07:24:03.598Z,1.60
2022-07-26T07:26:30.319Z,1.73
2022-07-26T07:28:57.026Z,1.70
2022-07-26T07:31:30.463Z,2.08
2022-07-26T07:34:11.725Z,1.50
2022-07-26T07:36:38.714Z,1.48
2022-07-26T07:39:07.102Z,1.83
2022-07-26T07:41:38.084Z,1.83
2022-07-26T07:44:05.911Z,1.65
2022-07-26T07:46:32.817Z,1.75
2022-07-26T07:48:59.669Z,1.50
2022-07-26T07:51:27.625Z,1.50
2022-07-26T07:53:57.946Z,1.45
2022-07-26T07:56:26.073Z,1.55
2022-07-26T07:58:52.791Z,1.60
2022-07-26T08:01:19.939Z,1.25
2022-07-26T08:03:50.157Z,1.60
2022-07-26T08:06:18.044Z,1.48
2022-07-26T08:08:44.873Z,1.40
2022-07-26T08:11:11.607Z,1.40
2022-07-26T08:13:39.762Z,1.50
2022-07-26T08:16:09.596Z,1.58
2022-07-26T08:18:37.694Z,1.40
2022-07-26T08:21:08.746Z,1.25
2022-07-26T08:23:35.526Z,1.90
2022-07-26T08:26:06.441Z,1.20
2022-07-26T08:28:58.608Z,1.30
2022-07-26T08:31:21.149Z,1.35
2022-07-26T08:33:48.827Z,1.15
2022-07-26T08:36:18.519Z,1.27
2022-07-26T08:38:46.345Z,1.27
2022-07-26T08:41:14.826Z,1.33
2022-07-26T08:43:51.130Z,1.25
2022-07-26T08:46:24.921Z,1.50
2022-07-26T08:48:53.714Z,1.40
2022-07-26T08:51:23.408Z,1.20
2022-07-26T08:53:54.103Z,1.42
2022-07-26T08:56:20.879Z,1.35
2022-07-26T08:58:47.565Z,1.20
2022-07-26T09:01:14.813Z,1.20
2022-07-26T09:03:43.214Z,1.48
2022-07-26T09:06:14.786Z,1.13
2022-07-26T09:08:42.313Z,1.35
2022-07-26T09:11:26.112Z,1.20
2022-07-26T09:14:01.396Z,1.15
2022-07-26T09:16:29.114Z,1.30
2022-07-26T09:19:13.682Z,1.20
2022-07-26T09:21:40.346Z,1.00
2022-07-26T09:24:07.182Z,1.20
2022-07-26T09:26:33.925Z,1.20
2022-07-26T09:29:08.581Z,1.10
2022-07-26T09:31:37.678Z,1.15
2022-07-26T09:34:06.607Z,1.15
2022-07-26T09:36:33.670Z,1.60
2022-07-26T09:39:03.235Z,1.20
2022-07-26T09:41:33.186Z,1.30
2022-07-26T09:44:03.309Z,1.17
2022-07-26T09:46:31.042Z,1.42
2022-07-26T09:49:15.863Z,1.50
2022-07-26T09:51:45.427Z,1.15
2022-07-26T09:54:17.693Z,1.20
2022-07-26T09:56:49.836Z,1.42
2022-07-26T09:59:19.300Z,1.38
2022-07-26T10:01:46.650Z,1.55
2022-07-26T10:04:14.537Z,1.10
2022-07-26T10:06:42.457Z,1.20
2022-07-26T10:09:09.891Z,1.20
2022-07-26T10:11:50.710Z,1.10
2022-07-26T10:14:40.917Z,1.40
2022-07-26T10:17:28.918Z,1.25
2022-07-26T10:20:01.650Z,1.70
2022-07-26T10:22:33.901Z,1.30
2022-07-26T10:25:18.677Z,1.35
2022-07-26T10:27:50.740Z,1.10
2022-07-26T10:30:17.620Z,1.30
2022-07-26T10:33:13.315Z,1.20
2022-07-26T10:35:44.775Z,1.13
2022-07-26T10:38:26.882Z,0.82
2022-07-26T10:41:06.295Z,1.15
2022-07-26T10:43:42.286Z,1.20
2022-07-26T10:46:18.569Z,1.00
2022-07-26T10:49:06.441Z,0.90
2022-07-26T10:51:38.368Z,1.27
2022-07-26T10:54:10.720Z,1.20
2022-07-26T10:56:38.600Z,1.20
2022-07-26T10:59:06.675Z,1.23
2022-07-26T11:01:37.563Z,1.30
2022-07-26T11:04:05.750Z,1.00
2022-07-26T11:06:32.741Z,1.00
2022-07-26T11:09:10.610Z,1.05
2022-07-26T11:11:37.305Z,1.27
2022-07-26T11:14:06.846Z,1.40
2022-07-26T11:16:41.982Z,1.30
2022-07-26T11:19:25.857Z,1.20
2022-07-26T11:21:58.977Z,1.10
2022-07-26T11:24:26.782Z,1.13
2022-07-26T11:26:53.817Z,1.30
2022-07-26T11:29:38.009Z,1.38
2022-07-26T11:32:17.647Z,1.30
2022-07-26T11:34:45.705Z,1.20
2022-07-26T11:37:12.604Z,1.42
2022-07-26T11:39:39.717Z,1.00
2022-07-26T11:42:13.051Z,1.35
2022-07-26T11:44:44.937Z,1.30
2022-07-26T11:47:15.280Z,1.40
2022-07-26T11:50:00.207Z,1.40
2022-07-26T11:52:32.383Z,1.10
2022-07-26T11:54:59.810Z,1.40
2022-07-26T11:57:31.731Z,1.65
2022-07-26T11:59:59.786Z,1.52
2022-07-26T12:02:26.602Z,1.58
2022-07-26T12:05:14.425Z,1.67
2022-07-26T12:08:00.538Z,1.40
2022-07-26T12:10:28.073Z,1.27
2022-07-26T12:13:10.926Z,1.35
2022-07-26T12:15:48.943Z,1.33
2022-07-26T12:18:29.820Z,1.50
2022-07-26T12:21:08.920Z,1.90
2022-07-26T12:23:52.984Z,1.80
2022-07-26T12:26:27.768Z,2.00
2022-07-26T12:28:55.583Z,1.58
2022-07-26T12:31:30.500Z,1.50
2022-07-26T12:33:58.183Z,1.30
2022-07-26T12:36:28.332Z,1.63
2022-07-26T12:39:00.602Z,2.10
2022-07-26T12:41:42.418Z,1.58
2022-07-26T12:44:13.052Z,2.47
2022-07-26T12:46:40.242Z,1.90
2022-07-26T12:49:07.047Z,2.00
2022-07-26T12:51:34.033Z,1.77
2022-07-26T12:54:00.934Z,1.92
2022-07-26T12:56:27.786Z,1.65
2022-07-26T12:59:00.642Z,1.70
2022-07-26T13:01:28.915Z,2.20
2022-07-26T13:03:56.075Z,1.40
2022-07-26T13:06:22.854Z,2.13
2022-07-26T13:08:50.048Z,1.60
2022-07-26T13:11:16.768Z,1.90
2022-07-26T13:13:43.510Z,1.45
2022-07-26T13:16:12.325Z,2.33
2022-07-26T13:18:39.565Z,1.60
2022-07-26T13:21:06.427Z,2.40
2022-07-26T13:23:35.730Z,1.58
2022-07-26T13:26:03.481Z,1.95
2022-07-26T13:28:30.838Z,1.80
2022-07-26T13:30:57.705Z,1.70
2022-07-26T13:33:24.458Z,1.90
2022-07-26T13:35:51.146Z,2.22
2022-07-26T13:38:19.597Z,1.98
2022-07-26T13:40:46.399Z,1.83
2022-07-26T13:43:13.070Z,2.03
2022-07-26T13:45:39.788Z,2.15
2022-07-26T13:48:07.126Z,1.90
2022-07-26T13:50:33.915Z,1.88
2022-07-26T13:53:00.652Z,2.40
2022-07-26T13:55:27.345Z,1.80
2022-07-26T13:57:57.280Z,1.98
2022-07-26T14:00:26.933Z,1.83
2022-07-26T14:02:54.905Z,2.25
2022-07-26T14:05:21.829Z,1.30
2022-07-26T14:07:48.633Z,1.60
2022-07-26T14:10:15.387Z,1.98
2022-07-26T14:12:42.201Z,1.70
2022-07-26T14:15:18.031Z,1.40
2022-07-26T14:17:48.109Z,1.58
2022-07-26T14:20:17.047Z,1.63
2022-07-26T14:22:44.532Z,1.70
2022-07-26T14:25:11.498Z,1.85
2022-07-26T14:27:38.303Z,1.77
2022-07-26T14:30:05.650Z,1.63
2022-07-26T14:32:32.343Z,1.60
2022-07-26T14:34:59.040Z,1.58
2022-07-26T14:37:43.204Z,1.80
2022-07-26T14:40:16.051Z,1.50
2022-07-26T14:42:43.394Z,1.45
2022-07-26T14:45:11.191Z,2.00
2022-07-26T14:47:37.929Z,1.50
2022-07-26T14:50:07.554Z,1.45
2022-07-26T14:52:38.019Z,1.70
2022-07-26T14:55:05.624Z,1.85
2022-07-26T14:57:32.315Z,1.60
2022-07-26T14:59:59.297Z,1.50
2022-07-26T15:02:26.425Z,1.48
2022-07-26T15:04:53.299Z,1.48
2022-07-26T15:07:20.196Z,1.58
2022-07-26T15:09:46.862Z,1.75
2022-07-26T15:12:13.588Z,1.75
2022-07-26T15:14:42.052Z,2.08
2022-07-26T15:17:08.721Z,1.27
2022-07-26T15:19:35.394Z,1.58
2022-07-26T15:22:02.394Z,1.80
2022-07-26T15:24:29.121Z,1.83
2022-07-26T15:26:55.841Z,1.40
2022-07-26T15:29:22.572Z,1.60
2022-07-26T15:31:50.385Z,1.63
2022-07-26T15:34:17.189Z,1.38
2022-07-26T15:36:43.905Z,1.35
2022-07-26T15:39:18.419Z,1.55
2022-07-26T15:41:47.181Z,1.60
2022-07-26T15:44:17.203Z,1.60
2022-07-26T15:46:45.824Z,1.75
2022-07-26T15:49:15.653Z,1.67
2022-07-26T15:51:43.466Z,1.60
2022-07-26T15:54:12.158Z,1.40
2022-07-26T15:56:39.512Z,1.50
2022-07-26T15:59:09.190Z,1.85
2022-07-26T16:01:36.803Z,1.58
2022-07-26T16:04:05.239Z,1.48
2022-07-26T16:06:33.819Z,1.33
2022-07-26T16:09:20.030Z,1.63
2022-07-26T16:11:48.436Z,1.40
2022-07-26T16:14:16.248Z,1.42
2022-07-26T16:16:43.492Z,1.42
2022-07-26T16:19:11.046Z,1.60
2022-07-26T16:21:38.245Z,1.60
2022-07-26T16:24:07.386Z,1.35
2022-07-26T16:26:35.369Z,1.33
2022-07-26T16:29:03.653Z,1.33
2022-07-26T16:31:31.137Z,1.90
2022-07-26T16:33:57.968Z,1.40
2022-07-26T16:36:24.838Z,1.42
2022-07-26T16:38:51.834Z,1.60
2022-07-26T16:41:18.817Z,1.77
2022-07-26T16:43:45.584Z,1.70
2022-07-26T16:46:12.330Z,1.60
2022-07-26T16:48:39.144Z,1.40
2022-07-26T16:51:06.057Z,1.20
2022-07-26T16:53:32.752Z,1.70
2022-07-26T16:55:59.834Z,1.40
2022-07-26T16:58:26.630Z,1.45
2022-07-26T17:00:53.441Z,1.73
2022-07-26T17:03:20.376Z,1.80
2022-07-26T17:05:47.231Z,1.30
2022-07-26T17:08:13.962Z,1.63
2022-07-26T17:10:42.042Z,1.58
2022-07-26T17:13:09.046Z,1.60
2022-07-26T17:15:36.236Z,1.40
2022-07-26T17:18:04.174Z,1.75
2022-07-26T17:20:30.917Z,1.63
2022-07-26T17:22:57.625Z,1.80
2022-07-26T17:25:24.336Z,1.42
2022-07-26T17:27:51.261Z,1.80
2022-07-26T17:30:18.010Z,1.60
2022-07-26T17:32:44.872Z,1.40
2022-07-26T17:35:11.713Z,1.40
2022-07-26T17:37:38.486Z,2.15
2022-07-26T17:40:08.364Z,1.70
2022-07-26T17:42:36.495Z,1.65
2022-07-26T17:45:06.701Z,1.58
2022-07-26T17:52:52.771Z,1.60
2022-07-26T17:55:20.480Z,1.73
2022-07-26T17:57:48.609Z,1.50
2022-07-26T18:00:19.298Z,1.93
2022-07-26T18:02:46.570Z,1.58
2022-07-26T18:05:13.925Z,1.70
2022-07-26T18:07:40.837Z,1.55
2022-07-26T18:10:08.037Z,1.40
2022-07-26T18:12:34.899Z,1.60
2022-07-26T18:15:01.577Z,1.88
2022-07-26T18:17:28.283Z,1.50
2022-07-26T18:19:55.175Z,1.42
2022-07-26T18:22:23.144Z,1.50
2022-07-26T18:24:49.877Z,1.50
2022-07-26T18:27:16.577Z,1.67
2022-07-26T18:29:43.324Z,1.27
2022-07-26T18:32:10.088Z,1.55
2022-07-26T18:34:36.834Z,1.30
2022-07-26T18:37:04.705Z,1.15
2022-07-26T18:39:33.176Z,1.20
2022-07-26T18:42:00.111Z,1.20
2022-07-26T18:44:26.826Z,1.40
2022-07-26T18:46:55.944Z,1.40
2022-07-26T18:49:23.124Z,1.37
2022-07-26T18:51:50.208Z,1.10
2022-07-26T18:54:19.597Z,1.33
2022-07-26T18:56:46.349Z,1.42
2022-07-26T18:59:13.462Z,1.35
2022-07-26T19:01:40.523Z,1.10
2022-07-26T19:04:07.730Z,1.20
2022-07-26T19:06:35.401Z,1.13
2022-07-26T19:09:02.229Z,1.38
2022-07-26T19:11:30.219Z,1.40
2022-07-26T19:13:57.063Z,1.23
2022-07-26T19:16:26.574Z,1.52
2022-07-26T19:18:57.301Z,1.20
2022-07-26T19:21:24.547Z,1.20
2022-07-26T19:23:51.236Z,1.70
2022-07-26T19:26:18.128Z,1.45
2022-07-26T19:28:44.961Z,1.40
2022-07-26T19:31:11.731Z,1.30
2022-07-26T19:33:38.528Z,1.23
2022-07-26T19:36:05.378Z,1.05
2022-07-26T19:38:33.004Z,1.20
2022-07-26T19:41:00.446Z,1.10
2022-07-26T19:43:27.717Z,1.10
2022-07-26T19:45:54.529Z,1.25
2022-07-26T19:48:21.415Z,1.10
2022-07-26T19:50:48.636Z,1.30
2022-07-26T19:53:15.395Z,1.15
2022-07-26T19:55:42.461Z,1.58
2022-07-26T19:58:09.450Z,1.42
2022-07-26T20:00:36.315Z,1.48
2022-07-26T20:03:03.139Z,1.20
2022-07-26T20:05:30.271Z,1.50
2022-07-26T20:07:57.066Z,1.02
2022-07-26T20:10:27.295Z,1.20
2022-07-26T20:12:56.783Z,1.40
2022-07-26T20:15:23.595Z,1.08
2022-07-26T20:17:50.274Z,1.20
2022-07-26T20:20:17.910Z,1.48
2022-07-26T20:22:44.732Z,1.30
2022-07-26T20:25:11.889Z,1.50
2022-07-26T20:27:38.700Z,1.30
2022-07-26T20:30:06.897Z,1.38
2022-07-26T20:32:33.624Z,1.48
2022-07-26T20:35:00.374Z,1.30
2022-07-26T20:37:27.166Z,1.20
2022-07-26T20:39:53.864Z,1.40
2022-07-26T20:42:22.167Z,1.38
2022-07-26T20:44:50.127Z,1.20
2022-07-26T20:47:16.803Z,1.25
2022-07-26T20:49:43.514Z,1.30
2022-07-26T20:52:10.415Z,1.25
2022-07-26T20:54:38.206Z,1.20
2022-07-26T20:57:04.960Z,3.50
2022-07-26T20:59:32.364Z,2.55
2022-07-26T21:01:59.305Z,1.65
2022-07-26T21:04:26.224Z,1.60
2022-07-26T21:06:53.168Z,1.13
2022-07-26T21:09:19.895Z,1.25
2022-07-26T21:11:46.806Z,1.20
2022-07-26T21:14:13.476Z,1.10
2022-07-26T21:16:40.246Z,1.20
2022-07-26T21:19:07.087Z,1.20
2022-07-26T21:21:34.682Z,1.17
2022-07-26T21:24:01.394Z,1.35
2022-07-26T21:26:28.156Z,1.08
2022-07-26T21:28:54.850Z,1.30
2022-07-26T21:31:21.661Z,1.48
2022-07-26T21:33:48.318Z,3.60
2022-07-26T21:36:14.997Z,11.98
2022-07-26T21:38:42.065Z,7.10
2022-07-26T21:41:08.803Z,1.95
2022-07-26T21:43:39.989Z,1.40
2022-07-26T21:46:12.217Z,1.45
2022-07-26T21:48:39.813Z,1.42
2022-07-26T21:51:06.604Z,1.23
2022-07-26T21:53:33.288Z,1.48
2022-07-26T21:56:00.042Z,1.50
2022-07-26T21:58:28.060Z,1.48
2022-07-26T22:01:03.288Z,2.10
2022-07-26T22:03:35.588Z,4.80
2022-07-26T22:06:02.455Z,2.78
2022-07-26T22:08:29.143Z,3.20
2022-07-26T22:10:55.841Z,3.38
2022-07-26T22:13:22.576Z,2.10
2022-07-26T22:15:49.373Z,1.83
2022-07-26T22:18:16.440Z,7.45
2022-07-26T22:20:44.125Z,4.70
2022-07-26T22:23:12.003Z,2.25
2022-07-26T22:25:40.043Z,2.20
2022-07-26T22:28:08.086Z,2.25
2022-07-26T22:30:35.307Z,2.45
2022-07-26T22:33:03.810Z,2.00
2022-07-26T22:35:32.263Z,1.70
2022-07-26T22:38:06.840Z,1.52
2022-07-26T22:40:34.013Z,1.75
2022-07-26T22:43:00.951Z,1.75
2022-07-26T22:45:28.892Z,1.50
2022-07-26T22:47:56.707Z,1.52
2022-07-26T22:50:24.926Z,1.45
2022-07-26T22:52:52.556Z,1.20
2022-07-26T22:55:20.121Z,1.40
2022-07-26T22:57:46.893Z,1.50
2022-07-26T23:00:16.341Z,1.30
2022-07-26T23:02:43.736Z,1.50
2022-07-26T23:05:11.348Z,1.77
2022-07-26T23:07:38.804Z,1.20
2022-07-26T23:10:08.909Z,1.45
2022-07-26T23:12:36.397Z,1.20
2022-07-26T23:15:04.813Z,1.50
2022-07-26T23:17:31.836Z,1.48
2022-07-26T23:19:58.637Z,1.52
2022-07-26T23:22:25.450Z,1.50
2022-07-26T23:24:52.131Z,1.95
2022-07-26T23:27:20.306Z,1.80
2022-07-26T23:29:48.345Z,1.67
2022-07-26T23:32:16.493Z,5.32
2022-07-26T23:34:43.361Z,3.50
2022-07-26T23:37:10.092Z,2.15
2022-07-26T23:39:37.073Z,1.90
2022-07-26T23:42:03.958Z,1.55
2022-07-26T23:44:31.097Z,1.30
2022-07-26T23:46:58.741Z,1.45
2022-07-26T23:49:26.116Z,1.40
2022-07-26T23:51:53.117Z,1.35
2022-07-26T23:54:19.957Z,1.70
2022-07-26T23:56:47.450Z,1.33
2022-07-26T23:59:14.739Z,1.05
